createdAt,value
2022-10-04T00:00:37.363Z,-1.82
2022-10-04T00:03:13.226Z,-1.77
2022-10-04T00:05:42.558Z,-1.72
2022-10-04T00:08:39.351Z,-1.64
2022-10-04T00:11:29.904Z,-1.56
2022-10-04T00:14:01.887Z,-1.50
2022-10-04T00:16:42.208Z,-1.46
2022-10-04T00:19:16.721Z,-1.42
2022-10-04T00:21:57.500Z,-1.38
2022-10-04T00:24:30.973Z,-1.34
2022-10-04T00:27:25.380Z,-1.29
2022-10-04T00:30:03.299Z,-1.26
2022-10-04T00:32:41.064Z,-1.20
2022-10-04T00:35:28.275Z,-1.17
2022-10-04T00:38:12.796Z,-1.14
2022-10-04T00:40:54.900Z,-1.09
2022-10-04T00:43:29.404Z,-1.09
2022-10-04T00:46:12.140Z,-1.10
2022-10-04T00:49:00.652Z,-1.09
2022-10-04T00:51:49.526Z,-1.05
2022-10-04T00:54:24.724Z,-1.06
2022-10-04T00:56:57.135Z,-1.03
2022-10-04T00:59:47.027Z,-1.07
2022-10-04T01:02:16.287Z,-1.03
2022-10-04T01:05:01.036Z,-0.96
2022-10-04T01:07:34.123Z,-0.88
2022-10-04T01:10:11.496Z,-0.83
2022-10-04T01:12:49.162Z,-0.79
2022-10-04T01:15:39.406Z,-0.79
2022-10-04T01:18:20.214Z,-0.74
2022-10-04T01:21:22.747Z,-0.76
2022-10-04T01:24:16.196Z,-0.73
2022-10-04T01:26:46.394Z,-0.68
2022-10-04T01:29:33.447Z,-0.60
2022-10-04T01:32:02.612Z,-0.56
2022-10-04T01:34:31.858Z,-0.56
2022-10-04T01:37:01.775Z,-0.43
2022-10-04T01:39:30.622Z,-0.30
2022-10-04T01:42:30.574Z,-0.20
2022-10-04T01:45:11.607Z,-0.15
2022-10-04T01:47:54.722Z,0.03
2022-10-04T01:50:34.139Z,0.18
2022-10-04T01:53:32.947Z,0.36
2022-10-04T01:56:26.043Z,0.52
2022-10-04T01:59:00.732Z,0.58
2022-10-04T02:01:42.613Z,0.60
2022-10-04T02:04:28.131Z,0.53
2022-10-04T02:07:00.011Z,0.72
2022-10-04T02:09:39.521Z,0.74
2022-10-04T02:12:08.481Z,0.83
2022-10-04T02:14:40.358Z,0.90
2022-10-04T02:17:12.556Z,0.97
2022-10-04T02:19:43.145Z,1.02
2022-10-04T02:22:12.728Z,1.14
2022-10-04T02:24:47.980Z,1.23
2022-10-04T02:27:17.560Z,1.37
2022-10-04T02:29:46.526Z,1.47
2022-10-04T02:32:34.183Z,1.67
2022-10-04T02:35:04.679Z,1.93
2022-10-04T02:37:34.661Z,2.03
2022-10-04T02:40:16.791Z,2.18
2022-10-04T02:43:01.013Z,2.35
2022-10-04T02:45:48.343Z,2.57
2022-10-04T02:48:32.395Z,2.51
2022-10-04T02:51:12.795Z,2.54
2022-10-04T02:53:49.862Z,2.67
2022-10-04T02:56:19.931Z,2.81
2022-10-04T02:58:49.240Z,3.04
2022-10-04T03:01:28.162Z,3.24
2022-10-04T03:03:58.994Z,3.41
2022-10-04T03:06:32.993Z,3.53
2022-10-04T03:09:04.290Z,3.64
2022-10-04T03:11:41.038Z,3.70
2022-10-04T03:14:21.674Z,3.88
2022-10-04T03:16:57.885Z,4.04
2022-10-04T03:19:28.462Z,4.10
2022-10-04T03:22:01.628Z,4.22
2022-10-04T03:24:37.555Z,4.30
2022-10-04T03:27:15.064Z,4.36
2022-10-04T03:29:44.403Z,4.44
2022-10-04T03:32:19.535Z,4.47
2022-10-04T03:35:29.226Z,4.56
2022-10-04T03:37:59.840Z,4.53
2022-10-04T03:40:31.358Z,4.50
2022-10-04T03:43:03.477Z,4.50
2022-10-04T03:45:35.743Z,4.45
2022-10-04T03:48:10.848Z,4.37
2022-10-04T03:50:48.137Z,4.32
2022-10-04T03:53:25.316Z,4.33
2022-10-04T03:55:54.760Z,4.33
2022-10-04T03:58:26.197Z,4.28
2022-10-04T04:01:11.682Z,4.37
2022-10-04T04:04:08.975Z,4.44
2022-10-04T04:06:53.048Z,4.46
2022-10-04T04:09:30.196Z,4.54
2022-10-04T04:12:16.954Z,4.49
2022-10-04T04:14:50.307Z,4.46
2022-10-04T04:17:28.238Z,4.51
2022-10-04T04:20:07.481Z,4.47
2022-10-04T04:22:37.902Z,4.41
2022-10-04T04:25:14.615Z,4.41
2022-10-04T04:27:47.303Z,4.48
2022-10-04T04:30:18.634Z,4.65
2022-10-04T04:32:52.198Z,4.67
2022-10-04T04:35:30.905Z,4.80
2022-10-04T04:38:14.991Z,5.03
2022-10-04T04:40:44.457Z,5.12
2022-10-04T04:43:22.836Z,5.15
2022-10-04T04:46:14.931Z,5.20
2022-10-04T04:48:45.682Z,5.27
2022-10-04T04:51:22.080Z,5.20
2022-10-04T04:53:53.467Z,5.07
2022-10-04T04:56:27.307Z,4.93
2022-10-04T04:59:00.467Z,4.89
2022-10-04T05:01:38.036Z,4.86
2022-10-04T05:04:16.634Z,4.87
2022-10-04T05:06:47.829Z,4.93
2022-10-04T05:09:42.828Z,5.07
2022-10-04T05:12:18.651Z,5.15
2022-10-04T05:14:52.698Z,5.15
2022-10-04T05:17:26.029Z,5.15
2022-10-04T05:19:59.994Z,5.15
2022-10-04T05:22:31.455Z,5.16
2022-10-04T05:25:08.132Z,5.20
2022-10-04T05:27:38.510Z,5.26
2022-10-04T05:30:36.847Z,5.25
2022-10-04T05:33:09.713Z,5.09
2022-10-04T05:36:26.345Z,4.99
2022-10-04T05:39:08.073Z,4.99
2022-10-04T05:41:49.544Z,5.11
2022-10-04T05:44:30.294Z,5.08
2022-10-04T05:47:02.329Z,5.16
2022-10-04T05:49:39.429Z,5.14
2022-10-04T05:52:16.396Z,5.12
2022-10-04T05:54:45.376Z,5.05
2022-10-04T05:57:31.123Z,5.00
2022-10-04T06:00:16.846Z,4.99
2022-10-04T06:03:17.329Z,4.97
2022-10-04T06:05:50.974Z,4.95
2022-10-04T06:08:40.510Z,5.02
2022-10-04T06:11:35.455Z,5.15
2022-10-04T06:14:22.354Z,5.23
2022-10-04T06:16:51.179Z,5.34
2022-10-04T06:19:34.865Z,5.37
2022-10-04T06:22:23.213Z,5.38
2022-10-04T06:24:55.470Z,5.46
2022-10-04T06:27:33.886Z,5.46
2022-10-04T06:30:13.132Z,5.49
2022-10-04T06:32:59.719Z,5.23
2022-10-04T06:36:00.116Z,5.19
2022-10-04T06:39:04.456Z,5.32
2022-10-04T06:41:47.362Z,5.36
2022-10-04T06:44:29.362Z,5.34
2022-10-04T06:47:00.823Z,5.29
2022-10-04T06:49:54.330Z,5.22
2022-10-04T06:52:48.208Z,5.17
2022-10-04T06:55:28.822Z,5.21
2022-10-04T06:58:31.209Z,5.13
2022-10-04T07:01:27.522Z,4.97
2022-10-04T07:04:49.972Z,4.96
2022-10-04T07:07:36.066Z,4.95
2022-10-04T07:10:11.780Z,4.83
2022-10-04T07:12:44.152Z,4.73
2022-10-04T07:15:45.894Z,4.70
2022-10-04T07:18:29.777Z,4.48
2022-10-04T07:21:12.311Z,4.40
2022-10-04T07:23:52.548Z,4.43
2022-10-04T07:26:30.657Z,4.37
2022-10-04T07:29:21.571Z,4.36
2022-10-04T07:32:06.453Z,4.35
2022-10-04T07:35:07.605Z,4.37
2022-10-04T07:37:50.447Z,4.37
2022-10-04T07:40:27.978Z,4.39
2022-10-04T07:43:08.612Z,4.43
2022-10-04T07:45:40.630Z,4.37
2022-10-04T07:48:23.977Z,4.31
2022-10-04T07:51:04.816Z,4.30
2022-10-04T07:53:47.438Z,4.23
2022-10-04T07:56:32.005Z,4.18
2022-10-04T07:59:12.653Z,4.08
2022-10-04T08:02:09.777Z,4.04
2022-10-04T08:04:57.113Z,3.99
2022-10-04T08:08:01.165Z,3.94
2022-10-04T08:10:38.242Z,3.82
2022-10-04T08:13:17.297Z,3.75
2022-10-04T08:15:46.867Z,3.62
2022-10-04T08:18:47.411Z,3.64
2022-10-04T08:21:24.234Z,3.60
2022-10-04T08:24:31.902Z,3.54
2022-10-04T08:27:18.469Z,3.45
2022-10-04T08:29:58.678Z,3.38
2022-10-04T08:32:51.717Z,3.34
2022-10-04T08:35:30.028Z,3.28
2022-10-04T08:38:21.837Z,3.18
2022-10-04T08:41:09.040Z,3.06
2022-10-04T08:43:56.655Z,2.95
2022-10-04T08:47:03.780Z,2.81
2022-10-04T08:49:52.883Z,2.81
2022-10-04T08:52:25.268Z,2.81
2022-10-04T08:55:29.535Z,2.77
2022-10-04T08:58:19.766Z,2.66
2022-10-04T09:01:19.031Z,2.59
2022-10-04T09:04:06.277Z,2.54
2022-10-04T09:06:53.780Z,2.51
2022-10-04T09:10:14.185Z,2.47
2022-10-04T09:13:19.655Z,2.43
2022-10-04T09:15:52.132Z,2.35
2022-10-04T09:18:38.923Z,2.29
2022-10-04T09:21:14.818Z,2.25
2022-10-04T09:24:11.481Z,2.20
2022-10-04T09:27:02.244Z,2.17
2022-10-04T09:29:55.280Z,2.11
2022-10-04T09:32:32.896Z,2.13
2022-10-04T09:35:38.762Z,2.10
2022-10-04T09:38:39.479Z,2.02
2022-10-04T09:41:33.090Z,1.94
2022-10-04T09:44:35.982Z,1.86
2022-10-04T09:47:49.809Z,1.74
2022-10-04T09:50:57.661Z,1.64
2022-10-04T09:53:45.680Z,1.55
2022-10-04T09:56:14.401Z,1.48
2022-10-04T09:58:59.160Z,1.40
2022-10-04T10:02:02.121Z,1.13
2022-10-04T10:04:48.049Z,1.24
2022-10-04T10:07:48.817Z,1.10
2022-10-04T10:10:59.630Z,1.10
2022-10-04T10:13:56.188Z,1.06
2022-10-04T10:16:46.068Z,1.04
2022-10-04T10:19:28.140Z,1.04
2022-10-04T10:22:07.756Z,0.93
2022-10-04T10:25:11.369Z,0.97
2022-10-04T10:27:53.507Z,0.91
2022-10-04T10:30:32.326Z,0.87
2022-10-04T10:33:26.834Z,0.81
2022-10-04T10:36:02.234Z,0.81
2022-10-04T10:38:51.768Z,0.76
2022-10-04T10:41:42.936Z,0.78
2022-10-04T10:44:35.484Z,0.74
2022-10-04T10:47:26.867Z,0.70
2022-10-04T10:50:28.199Z,0.66
2022-10-04T10:53:33.241Z,0.63
2022-10-04T10:56:04.915Z,0.58
2022-10-04T10:59:11.379Z,0.52
2022-10-04T11:01:55.818Z,0.47
2022-10-04T11:04:27.702Z,0.47
2022-10-04T11:07:21.103Z,0.44
2022-10-04T11:10:04.993Z,0.42
2022-10-04T11:13:08.093Z,0.41
2022-10-04T11:15:49.060Z,0.43
2022-10-04T11:18:47.067Z,0.44
2022-10-04T11:21:35.675Z,0.42
2022-10-04T11:24:33.348Z,0.38
2022-10-04T11:27:49.001Z,0.39
2022-10-04T11:30:28.843Z,0.35
2022-10-04T11:33:17.992Z,0.37
2022-10-04T11:35:56.113Z,0.35
2022-10-04T11:38:49.146Z,0.33
2022-10-04T11:41:50.233Z,0.31
2022-10-04T11:44:37.801Z,0.30
2022-10-04T11:50:45.834Z,0.20
2022-10-04T11:53:22.611Z,0.32
2022-10-04T11:55:59.030Z,0.31
2022-10-04T11:59:00.819Z,0.27
2022-10-04T12:02:00.729Z,0.28
2022-10-04T12:05:05.630Z,0.24
2022-10-04T12:07:57.788Z,0.22
2022-10-04T12:10:34.677Z,0.24
2022-10-04T12:13:09.318Z,0.25
2022-10-04T12:15:50.043Z,0.23
2022-10-04T12:18:37.223Z,0.23
2022-10-04T12:21:47.292Z,0.23
2022-10-04T12:24:39.742Z,0.22
2022-10-04T12:27:46.168Z,0.21
2022-10-04T12:30:27.160Z,0.24
2022-10-04T12:33:43.550Z,0.28
2022-10-04T12:36:14.217Z,0.31
2022-10-04T12:38:58.061Z,0.33
2022-10-04T12:41:48.520Z,0.32
2022-10-04T12:44:23.508Z,0.32
2022-10-04T12:47:07.271Z,0.34
2022-10-04T12:50:13.344Z,0.35
2022-10-04T12:53:07.618Z,0.34
2022-10-04T12:56:00.394Z,0.32
2022-10-04T12:59:05.387Z,0.30
2022-10-04T13:01:47.334Z,0.30
2022-10-04T13:04:48.419Z,0.28
2022-10-04T13:07:44.690Z,0.30
2022-10-04T13:10:39.116Z,0.30
2022-10-04T13:13:42.968Z,0.31
2022-10-04T13:20:13.470Z,0.31
2022-10-04T13:23:05.453Z,0.36
2022-10-04T13:26:01.312Z,0.37
2022-10-04T13:28:44.494Z,0.37
2022-10-04T13:31:50.295Z,0.38
2022-10-04T13:34:53.643Z,0.32
2022-10-04T13:37:30.180Z,0.26
2022-10-04T13:40:05.495Z,0.20
2022-10-04T13:42:57.524Z,0.19
2022-10-04T13:46:06.077Z,0.19
2022-10-04T13:48:51.659Z,0.17
2022-10-04T13:51:29.971Z,0.17
2022-10-04T13:54:52.835Z,0.13
2022-10-04T13:57:58.520Z,0.12
2022-10-04T14:00:57.194Z,0.12
2022-10-04T14:04:01.910Z,0.12
2022-10-04T14:07:07.451Z,0.16
2022-10-04T14:10:01.077Z,0.19
2022-10-04T14:12:51.993Z,0.17
2022-10-04T14:15:38.790Z,0.19
2022-10-04T14:18:27.424Z,0.20
2022-10-04T14:21:21.653Z,0.21
2022-10-04T14:23:54.440Z,0.22
2022-10-04T14:26:29.263Z,0.20
2022-10-04T14:29:14.847Z,0.20
2022-10-04T14:32:03.158Z,0.21
2022-10-04T14:35:02.375Z,0.22
2022-10-04T14:37:50.941Z,0.19
2022-10-04T14:40:38.713Z,0.20
2022-10-04T14:43:17.889Z,0.20
2022-10-04T14:46:11.512Z,0.24
2022-10-04T14:49:00.154Z,0.27
2022-10-04T14:51:37.099Z,0.29
2022-10-04T14:54:11.478Z,0.30
2022-10-04T14:57:04.899Z,0.30
2022-10-04T14:59:39.372Z,0.27
2022-10-04T15:02:20.864Z,0.20
2022-10-04T15:04:51.830Z,0.23
2022-10-04T15:07:47.572Z,0.19
2022-10-04T15:10:37.928Z,0.24
2022-10-04T15:13:24.493Z,0.22
2022-10-04T15:16:19.552Z,0.20
2022-10-04T15:18:58.161Z,0.22
2022-10-04T15:21:48.236Z,0.22
2022-10-04T15:24:17.014Z,0.23
2022-10-04T15:26:54.890Z,0.25
2022-10-04T15:29:32.582Z,0.28
2022-10-04T15:32:07.861Z,0.29
2022-10-04T15:34:46.233Z,0.30
2022-10-04T15:37:15.016Z,0.28
2022-10-04T15:40:04.419Z,0.30
2022-10-04T15:42:36.594Z,0.32
2022-10-04T15:45:20.849Z,0.38
2022-10-04T15:47:58.680Z,0.41
2022-10-04T15:50:33.547Z,0.41
2022-10-04T15:53:24.031Z,0.34
2022-10-04T15:56:09.290Z,0.39
2022-10-04T15:59:14.987Z,0.38
2022-10-04T16:01:59.676Z,0.38
2022-10-04T16:04:38.194Z,0.32
2022-10-04T16:07:42.802Z,0.26
2022-10-04T16:10:20.732Z,0.28
2022-10-04T16:13:05.941Z,0.27
2022-10-04T16:15:40.579Z,0.25
2022-10-04T16:18:33.644Z,0.28
2022-10-04T16:21:18.878Z,0.26
2022-10-04T16:23:48.759Z,0.18
2022-10-04T16:26:21.990Z,0.31
2022-10-04T16:29:15.306Z,0.33
2022-10-04T16:32:13.895Z,0.33
2022-10-04T16:35:08.958Z,0.24
2022-10-04T16:37:57.478Z,0.36
2022-10-04T16:40:44.820Z,0.36
2022-10-04T16:43:19.470Z,0.37
2022-10-04T16:46:23.679Z,0.33
2022-10-04T16:48:56.718Z,0.29
2022-10-04T16:51:25.710Z,0.29
2022-10-04T16:54:11.873Z,0.26
2022-10-04T16:57:01.979Z,0.24
2022-10-04T16:59:40.185Z,0.25
2022-10-04T17:02:35.602Z,0.24
2022-10-04T17:05:18.869Z,0.26
2022-10-04T17:08:15.483Z,0.26
2022-10-04T17:10:49.864Z,0.25
2022-10-04T17:13:24.566Z,0.23
2022-10-04T17:16:02.506Z,0.20
2022-10-04T17:19:08.495Z,0.21
2022-10-04T17:22:04.769Z,0.22
2022-10-04T17:24:48.713Z,0.19
2022-10-04T17:27:47.038Z,0.14
2022-10-04T17:30:22.601Z,0.15
2022-10-04T17:32:57.172Z,0.13
2022-10-04T17:36:04.181Z,0.12
2022-10-04T17:39:00.331Z,0.07
2022-10-04T17:42:06.593Z,0.06
2022-10-04T17:44:42.827Z,0.07
2022-10-04T17:48:04.936Z,0.06
2022-10-04T17:51:18.358Z,-0.03
2022-10-04T17:54:11.252Z,-0.03
2022-10-04T17:57:09.669Z,-0.04
2022-10-04T18:00:14.975Z,-0.02
2022-10-04T18:02:50.565Z,-0.03
2022-10-04T18:05:29.190Z,-0.02
2022-10-04T18:08:02.592Z,-0.03
2022-10-04T18:10:48.608Z,-0.02
2022-10-04T18:13:35.475Z,-0.01
2022-10-04T18:16:20.001Z,0.00
2022-10-04T18:18:49.713Z,-0.02
2022-10-04T18:21:28.559Z,-0.03
2022-10-04T18:24:22.530Z,-0.04
2022-10-04T18:27:06.050Z,-0.07
2022-10-04T18:29:40.749Z,-0.10
2022-10-04T18:32:27.867Z,-0.13
2022-10-04T18:34:58.990Z,-0.18
2022-10-04T18:37:35.319Z,-0.21
2022-10-04T18:40:25.553Z,-0.23
2022-10-04T18:42:58.273Z,-0.21
2022-10-04T18:45:34.944Z,-0.25
2022-10-04T18:48:15.713Z,-0.22
2022-10-04T18:50:47.575Z,-0.18
2022-10-04T18:53:34.937Z,-0.19
2022-10-04T18:56:10.033Z,-0.16
2022-10-04T18:59:22.346Z,-0.16
2022-10-04T19:02:18.576Z,-0.16
2022-10-04T19:05:02.658Z,-0.15
2022-10-04T19:08:25.410Z,-0.17
2022-10-04T19:11:03.733Z,-0.13
2022-10-04T19:13:35.262Z,-0.11
2022-10-04T19:16:16.271Z,-0.10
2022-10-04T19:18:56.953Z,-0.04
2022-10-04T19:21:56.223Z,-0.05
2022-10-04T19:24:24.935Z,-0.05
2022-10-04T19:27:22.246Z,-0.08
2022-10-04T19:30:06.238Z,-0.07
2022-10-04T19:33:02.515Z,-0.07
2022-10-04T19:35:38.169Z,-0.08
2022-10-04T19:38:12.966Z,-0.04
2022-10-04T19:40:52.041Z,-0.05
2022-10-04T19:43:38.609Z,-0.05
2022-10-04T19:46:29.337Z,-0.03
2022-10-04T19:48:58.500Z,-0.02
2022-10-04T19:51:34.549Z,-0.01
2022-10-04T19:54:16.053Z,-0.09
2022-10-04T19:56:50.674Z,-0.10
2022-10-04T19:59:36.422Z,-0.07
2022-10-04T20:02:13.749Z,-0.07
2022-10-04T20:04:44.253Z,0.02
2022-10-04T20:07:22.870Z,0.03
2022-10-04T20:09:55.293Z,0.01
2022-10-04T20:12:39.707Z,0.06
2022-10-04T20:15:25.200Z,0.03
2022-10-04T20:17:56.980Z,0.07
2022-10-04T20:20:43.858Z,0.09
2022-10-04T20:23:32.415Z,0.14
2022-10-04T20:26:02.429Z,0.14
2022-10-04T20:28:31.184Z,0.10
2022-10-04T20:31:07.302Z,0.05
2022-10-04T20:33:39.667Z,0.06
2022-10-04T20:36:13.706Z,0.07
2022-10-04T20:38:51.579Z,0.10
2022-10-04T20:41:29.690Z,0.12
2022-10-04T20:44:02.131Z,0.13
2022-10-04T20:46:40.737Z,0.11
2022-10-04T20:49:19.271Z,0.14
2022-10-04T20:51:50.325Z,0.10
2022-10-04T20:54:20.762Z,0.08
2022-10-04T20:56:51.978Z,0.04
2022-10-04T20:59:22.948Z,-0.02
2022-10-04T21:02:05.925Z,0.01
2022-10-04T21:04:46.753Z,-0.01
2022-10-04T21:07:22.166Z,0.05
2022-10-04T21:09:53.742Z,0.06
2022-10-04T21:12:35.343Z,0.04
2022-10-04T21:15:18.000Z,0.00
2022-10-04T21:18:09.036Z,0.03
2022-10-04T21:20:52.044Z,0.05
2022-10-04T21:23:34.050Z,0.07
2022-10-04T21:26:29.256Z,0.09
2022-10-04T21:28:59.563Z,0.06
2022-10-04T21:31:28.604Z,0.08
2022-10-04T21:33:57.417Z,0.05
2022-10-04T21:36:26.192Z,0.11
2022-10-04T21:38:54.911Z,0.11
2022-10-04T21:41:23.660Z,0.09
2022-10-04T21:43:52.352Z,0.11
2022-10-04T21:46:21.124Z,0.09
2022-10-04T21:48:50.020Z,0.07
2022-10-04T21:51:18.896Z,0.10
2022-10-04T21:53:47.877Z,0.13
2022-10-04T21:56:16.639Z,0.10
2022-10-04T21:58:45.401Z,0.12
2022-10-04T22:01:14.639Z,0.18
2022-10-04T22:03:43.607Z,0.19
2022-10-04T22:06:12.445Z,0.03
2022-10-04T22:08:43.514Z,0.18
2022-10-04T22:11:12.555Z,0.15
2022-10-04T22:13:41.632Z,0.15
2022-10-04T22:16:10.496Z,0.13
2022-10-04T22:18:39.280Z,0.14
2022-10-04T22:21:08.217Z,0.10
2022-10-04T22:23:39.980Z,0.09
2022-10-04T22:26:22.969Z,0.07
2022-10-04T22:28:54.587Z,0.12
2022-10-04T22:31:27.488Z,0.06
2022-10-04T22:33:57.238Z,0.10
2022-10-04T22:36:34.809Z,0.09
2022-10-04T22:39:09.707Z,0.05
2022-10-04T22:41:45.256Z,0.03
2022-10-04T22:44:22.401Z,0.04
2022-10-04T22:46:56.788Z,0.01
2022-10-04T22:49:32.098Z,0.01
2022-10-04T22:52:04.811Z,0.03
2022-10-04T22:54:36.180Z,0.02
2022-10-04T22:57:04.952Z,0.02
2022-10-04T22:59:42.684Z,0.02
2022-10-04T23:02:32.033Z,-0.01
2022-10-04T23:05:20.496Z,-0.01
2022-10-04T23:07:49.966Z,-0.02
2022-10-04T23:10:20.556Z,-0.01
2022-10-04T23:12:50.050Z,0.00
2022-10-04T23:15:20.894Z,0.04
2022-10-04T23:17:55.450Z,0.05
2022-10-04T23:20:24.597Z,0.06
2022-10-04T23:22:55.242Z,0.03
2022-10-04T23:25:31.236Z,0.06
2022-10-04T23:28:03.914Z,0.05
2022-10-04T23:30:32.855Z,0.06
2022-10-04T23:33:02.117Z,0.08
2022-10-04T23:35:33.512Z,0.09
2022-10-04T23:38:07.510Z,0.07
2022-10-04T23:40:36.252Z,0.04
2022-10-04T23:43:06.449Z,0.09
2022-10-04T23:45:37.107Z,0.19
2022-10-04T23:48:10.284Z,0.20
2022-10-04T23:50:40.823Z,0.27
2022-10-04T23:53:27.717Z,0.31
2022-10-04T23:55:58.232Z,0.31
2022-10-04T23:58:33.118Z,0.40
